Hallton, Pennsylvania
Current Conditions -  °F | °C
As of 4:53 PM on Friday 31 Oct 2014 (Local Time) from KDUJ Reporting Station
Overcast Overcast  
Wind Chill: 38°   Ceiling: 2000
Heat Index: 41°   Visibility: 10mi
Dew Point: 38°   Wind: 5mph
Humidity: 89%   Direction: 330°NNW
Pressure: 29.85"   Gusts: NA
Location:  41.3171°N, 79.0119°W
Report Text: KDUJ 312053Z AUTO 33004KT 10SM BKN020 OVC026 05/03 A2985 RMK AO2 RAE47 SLP116 P0002 60010 T00500033 56005
Loading
Personal Weather Stations






























Interactive Weather Map
Tropical Storm Tracking
New forecast layout! Learn more

10-Day Weather Forecast

Advertisements
Track Severe Weather on mobile